createdAt,value
2017-12-15T00:00:49.259Z,984.11
2017-12-15T00:01:49.247Z,984.10
2017-12-15T00:02:49.226Z,984.07
2017-12-15T00:03:49.195Z,984.07
2017-12-15T00:04:49.171Z,984.12
2017-12-15T00:05:49.146Z,984.11
2017-12-15T00:06:49.129Z,984.14
2017-12-15T00:07:49.099Z,984.17
2017-12-15T00:08:49.077Z,984.12
2017-12-15T00:09:49.054Z,984.17
2017-12-15T00:10:49.033Z,984.15
2017-12-15T00:11:49.017Z,984.19
2017-12-15T00:12:48.986Z,984.16
2017-12-15T00:13:48.962Z,984.20
2017-12-15T00:14:48.940Z,984.21
2017-12-15T00:15:48.998Z,984.19
2017-12-15T00:16:48.905Z,984.23
2017-12-15T00:17:48.874Z,984.24
2017-12-15T00:18:48.869Z,984.23
2017-12-15T00:19:48.827Z,984.23
2017-12-15T00:20:48.805Z,984.26
2017-12-15T00:21:48.786Z,984.28
2017-12-15T00:22:48.761Z,984.29
2017-12-15T00:23:48.733Z,984.31
2017-12-15T00:24:48.711Z,984.35
2017-12-15T00:25:48.694Z,984.31
2017-12-15T00:26:48.674Z,984.34
2017-12-15T00:27:48.643Z,984.30
2017-12-15T00:28:48.623Z,984.30
2017-12-15T00:29:48.607Z,984.35
2017-12-15T00:30:48.587Z,984.35
2017-12-15T00:31:48.552Z,984.31
2017-12-15T00:32:48.530Z,984.32
2017-12-15T00:33:48.515Z,984.31
2017-12-15T00:34:48.485Z,984.26
2017-12-15T00:35:48.468Z,984.24
2017-12-15T00:36:48.440Z,984.32
2017-12-15T00:37:48.419Z,984.33
2017-12-15T00:38:48.400Z,984.32
2017-12-15T00:39:48.375Z,984.35
2017-12-15T00:40:48.502Z,984.32
2017-12-15T00:41:48.329Z,984.28
2017-12-15T00:42:48.325Z,984.27
2017-12-15T00:43:48.307Z,984.26
2017-12-15T00:44:48.262Z,984.29
2017-12-15T00:45:48.243Z,984.28
2017-12-15T00:46:48.219Z,984.28
2017-12-15T00:47:48.199Z,984.28
2017-12-15T00:48:48.183Z,984.29
2017-12-15T00:49:48.147Z,984.28
2017-12-15T00:50:48.124Z,984.26
2017-12-15T00:51:48.100Z,984.30
2017-12-15T00:52:48.087Z,984.30
2017-12-15T00:53:48.057Z,984.28
2017-12-15T00:54:48.038Z,984.31
2017-12-15T00:55:48.010Z,984.27
2017-12-15T00:56:47.990Z,984.31
2017-12-15T00:57:47.969Z,984.28
2017-12-15T00:58:47.948Z,984.31
2017-12-15T00:59:47.922Z,984.34
2017-12-15T01:00:47.898Z,984.33
2017-12-15T01:01:47.875Z,984.33
2017-12-15T01:02:47.855Z,984.30
2017-12-15T01:03:47.832Z,984.32
2017-12-15T01:04:47.809Z,984.33
2017-12-15T01:05:47.786Z,984.29
2017-12-15T01:06:47.765Z,984.28
2017-12-15T01:07:47.742Z,984.29
2017-12-15T01:08:47.718Z,984.32
2017-12-15T01:09:47.701Z,984.34
2017-12-15T01:10:47.820Z,984.34
2017-12-15T01:11:47.651Z,984.36
2017-12-15T01:12:47.628Z,984.36
2017-12-15T01:13:47.724Z,984.37
2017-12-15T01:14:47.594Z,984.37
2017-12-15T01:15:47.559Z,984.36
2017-12-15T01:16:47.540Z,984.36
2017-12-15T01:17:47.514Z,984.37
2017-12-15T01:18:47.499Z,984.39
2017-12-15T01:19:47.469Z,984.36
2017-12-15T01:20:47.446Z,984.36
2017-12-15T01:21:47.429Z,984.38
2017-12-15T01:22:47.404Z,984.36
2017-12-15T01:23:47.379Z,984.38
2017-12-15T01:24:47.355Z,984.44
2017-12-15T01:25:47.332Z,984.41
2017-12-15T01:26:47.313Z,984.40
2017-12-15T01:27:47.288Z,984.46
2017-12-15T01:28:47.267Z,984.47
2017-12-15T01:29:47.242Z,984.42
2017-12-15T01:30:47.222Z,984.50
2017-12-15T01:31:47.196Z,984.52
2017-12-15T01:32:47.175Z,984.51
2017-12-15T01:33:47.151Z,984.47
2017-12-15T01:34:47.131Z,984.46
2017-12-15T01:35:47.264Z,984.46
2017-12-15T01:36:47.088Z,984.48
2017-12-15T01:37:47.072Z,984.52
2017-12-15T01:38:47.061Z,984.52
2017-12-15T01:39:47.016Z,984.53
2017-12-15T01:40:46.994Z,984.54
2017-12-15T01:41:46.971Z,984.50
2017-12-15T01:42:46.952Z,984.50
2017-12-15T01:43:46.974Z,984.54
2017-12-15T01:44:46.907Z,984.49
2017-12-15T01:45:46.880Z,984.50
2017-12-15T01:46:46.903Z,984.56
2017-12-15T01:47:46.832Z,984.59
2017-12-15T01:48:46.813Z,984.57
2017-12-15T01:49:46.799Z,984.57
2017-12-15T01:50:46.771Z,984.53
2017-12-15T01:51:46.746Z,984.57
2017-12-15T01:52:46.723Z,984.56
2017-12-15T01:53:46.699Z,984.57
2017-12-15T01:54:46.680Z,984.64
2017-12-15T01:55:46.652Z,984.63
2017-12-15T01:56:46.632Z,984.64
2017-12-15T01:57:46.608Z,984.62
2017-12-15T01:58:46.592Z,984.66
2017-12-15T01:59:46.563Z,984.70
2017-12-15T02:00:46.542Z,984.68
2017-12-15T02:01:46.528Z,984.72
2017-12-15T02:02:46.498Z,984.75
2017-12-15T02:03:46.470Z,984.69
2017-12-15T02:04:46.447Z,984.72
2017-12-15T02:05:46.428Z,984.78
2017-12-15T02:06:46.407Z,984.75
2017-12-15T02:07:46.388Z,984.79
2017-12-15T02:08:46.360Z,984.79
2017-12-15T02:09:46.343Z,984.79
2017-12-15T02:10:46.312Z,984.80
2017-12-15T02:11:46.297Z,984.82
2017-12-15T02:12:46.265Z,984.84
2017-12-15T02:13:46.245Z,984.81
2017-12-15T02:14:46.226Z,984.80
2017-12-15T02:15:46.198Z,984.83
2017-12-15T02:16:46.175Z,984.76
2017-12-15T02:17:46.155Z,984.84
2017-12-15T02:18:46.131Z,984.86
2017-12-15T02:19:46.107Z,984.83
2017-12-15T02:20:46.085Z,984.80
2017-12-15T02:21:46.063Z,984.82
2017-12-15T02:22:46.040Z,984.84
2017-12-15T02:23:46.014Z,984.84
2017-12-15T02:24:45.994Z,984.84
2017-12-15T02:25:45.975Z,984.85
2017-12-15T02:26:45.957Z,984.87
2017-12-15T02:27:45.926Z,984.87
2017-12-15T02:28:45.920Z,984.89
2017-12-15T02:29:45.884Z,984.91
2017-12-15T02:30:45.856Z,984.93
2017-12-15T02:31:45.835Z,984.93
2017-12-15T02:32:45.813Z,984.97
2017-12-15T02:33:45.789Z,985.00
2017-12-15T02:34:45.768Z,985.04
2017-12-15T02:35:45.743Z,985.00
2017-12-15T02:36:45.720Z,985.01
2017-12-15T02:37:45.701Z,985.01
2017-12-15T02:38:45.676Z,984.99
2017-12-15T02:39:45.652Z,985.03
2017-12-15T02:40:45.633Z,985.00
2017-12-15T02:41:45.775Z,985.07
2017-12-15T02:42:45.586Z,985.11
2017-12-15T02:43:45.559Z,985.12
2017-12-15T02:44:45.643Z,985.08
2017-12-15T02:45:45.522Z,985.09
2017-12-15T02:46:45.492Z,985.15
2017-12-15T02:47:45.485Z,985.12
2017-12-15T02:48:45.443Z,985.14
2017-12-15T02:49:45.422Z,985.14
2017-12-15T02:50:45.399Z,985.17
2017-12-15T02:51:45.377Z,985.18
2017-12-15T02:52:45.361Z,985.17
2017-12-15T02:53:45.330Z,985.22
2017-12-15T02:54:45.310Z,985.23
2017-12-15T02:55:45.285Z,985.25
2017-12-15T02:56:45.268Z,985.28
2017-12-15T02:57:45.241Z,985.31
2017-12-15T02:58:45.220Z,985.33
2017-12-15T02:59:45.192Z,985.32
2017-12-15T03:00:45.172Z,985.33
2017-12-15T03:01:45.149Z,985.35
2017-12-15T03:02:45.129Z,985.42
2017-12-15T03:03:45.101Z,985.40
2017-12-15T03:04:45.086Z,985.44
2017-12-15T03:05:45.059Z,985.45
2017-12-15T03:06:45.125Z,985.44
2017-12-15T03:07:45.011Z,985.46
2017-12-15T03:08:44.987Z,985.48
2017-12-15T03:09:44.988Z,985.55
2017-12-15T03:10:44.942Z,985.58
2017-12-15T03:11:44.919Z,985.57
2017-12-15T03:12:44.898Z,985.57
2017-12-15T03:13:44.878Z,985.58
2017-12-15T03:14:44.852Z,985.58
2017-12-15T03:15:44.826Z,985.60
2017-12-15T03:16:44.807Z,985.56
2017-12-15T03:17:44.781Z,985.58
2017-12-15T03:18:44.769Z,985.59
2017-12-15T03:19:44.737Z,985.58
2017-12-15T03:20:44.716Z,985.61
2017-12-15T03:21:44.691Z,985.66
2017-12-15T03:22:44.668Z,985.62
2017-12-15T03:23:44.656Z,985.63
2017-12-15T03:24:44.626Z,985.69
2017-12-15T03:25:44.599Z,985.72
2017-12-15T03:26:44.579Z,985.68
2017-12-15T03:27:44.557Z,985.70
2017-12-15T03:28:44.529Z,985.70
2017-12-15T03:29:44.507Z,985.73
2017-12-15T03:30:44.487Z,985.74
2017-12-15T03:31:44.466Z,985.70
2017-12-15T03:32:44.446Z,985.76
2017-12-15T03:33:44.424Z,985.71
2017-12-15T03:34:44.397Z,985.72
2017-12-15T03:35:44.375Z,985.78
2017-12-15T03:36:44.347Z,985.81
2017-12-15T03:37:44.323Z,985.80
2017-12-15T03:38:44.305Z,985.86
2017-12-15T03:39:44.404Z,985.85
2017-12-15T03:40:44.256Z,985.84
2017-12-15T03:41:44.242Z,985.85
2017-12-15T03:42:44.226Z,985.84
2017-12-15T03:43:44.198Z,985.86
2017-12-15T03:44:44.166Z,985.89
2017-12-15T03:45:44.145Z,985.89
2017-12-15T03:46:44.130Z,985.93
2017-12-15T03:47:44.102Z,985.89
2017-12-15T03:48:44.082Z,985.90
2017-12-15T03:49:44.052Z,985.88
2017-12-15T03:50:44.027Z,985.92
2017-12-15T03:51:44.003Z,985.93
2017-12-15T03:52:43.981Z,985.97
2017-12-15T03:53:43.960Z,986.02
2017-12-15T03:54:43.936Z,986.01
2017-12-15T03:55:43.911Z,986.06
2017-12-15T03:56:43.892Z,986.09
2017-12-15T03:57:43.864Z,986.04
2017-12-15T03:58:43.843Z,986.10
2017-12-15T03:59:43.830Z,986.11
2017-12-15T04:00:43.802Z,986.10
2017-12-15T04:01:43.783Z,986.09
2017-12-15T04:02:43.750Z,986.12
2017-12-15T04:03:43.729Z,986.12
2017-12-15T04:04:43.768Z,986.14
2017-12-15T04:05:43.681Z,986.20
2017-12-15T04:06:43.660Z,986.20
2017-12-15T04:07:43.634Z,986.19
2017-12-15T04:08:43.611Z,986.21
2017-12-15T04:09:43.588Z,986.18
2017-12-15T04:10:43.577Z,986.20
2017-12-15T04:11:43.543Z,986.18
2017-12-15T04:12:43.546Z,986.21
2017-12-15T04:13:43.498Z,986.18
2017-12-15T04:14:43.474Z,986.22
2017-12-15T04:15:43.507Z,986.23
2017-12-15T04:16:43.427Z,986.21
2017-12-15T04:17:43.416Z,986.20
2017-12-15T04:18:43.383Z,986.21
2017-12-15T04:19:43.363Z,986.24
2017-12-15T04:20:43.338Z,986.21
2017-12-15T04:21:43.316Z,986.21
2017-12-15T04:22:43.295Z,986.24
2017-12-15T04:23:43.266Z,986.25
2017-12-15T04:24:43.242Z,986.23
2017-12-15T04:25:43.218Z,986.24
2017-12-15T04:26:43.208Z,986.21
2017-12-15T04:27:43.175Z,986.24
2017-12-15T04:28:43.154Z,986.32
2017-12-15T04:29:43.126Z,986.24
2017-12-15T04:30:43.103Z,986.27
2017-12-15T04:31:43.101Z,986.29
2017-12-15T04:32:43.072Z,986.28
2017-12-15T04:33:43.040Z,986.30
2017-12-15T04:34:43.026Z,986.32
2017-12-15T04:35:42.987Z,986.38
2017-12-15T04:36:42.966Z,986.35
2017-12-15T04:37:43.052Z,986.40
2017-12-15T04:38:42.917Z,986.44
2017-12-15T04:39:42.894Z,986.44
2017-12-15T04:40:42.922Z,986.45
2017-12-15T04:41:42.850Z,986.47
2017-12-15T04:42:42.827Z,986.52
2017-12-15T04:43:42.803Z,986.52
2017-12-15T04:44:42.779Z,986.57
2017-12-15T04:45:42.756Z,986.58
2017-12-15T04:46:42.734Z,986.59
2017-12-15T04:47:42.708Z,986.64
2017-12-15T04:48:42.685Z,986.66
2017-12-15T04:49:42.662Z,986.71
2017-12-15T04:50:42.637Z,986.66
2017-12-15T04:51:42.615Z,986.68
2017-12-15T04:52:42.592Z,986.71
2017-12-15T04:53:42.572Z,986.72
2017-12-15T04:54:42.556Z,986.71
2017-12-15T04:55:42.526Z,986.75
2017-12-15T04:56:42.501Z,986.71
2017-12-15T04:57:42.488Z,986.72
2017-12-15T04:58:42.459Z,986.77
2017-12-15T04:59:42.430Z,986.75
2017-12-15T05:00:42.406Z,986.74
2017-12-15T05:01:42.383Z,986.71
2017-12-15T05:02:42.360Z,986.71
2017-12-15T05:03:42.343Z,986.74
2017-12-15T05:04:42.313Z,986.70
2017-12-15T05:05:42.290Z,986.71
2017-12-15T05:06:42.271Z,986.71
2017-12-15T05:07:42.242Z,986.71
2017-12-15T05:08:42.219Z,986.74
2017-12-15T05:09:42.194Z,986.73
2017-12-15T05:10:42.261Z,986.73
2017-12-15T05:11:42.149Z,986.77
2017-12-15T05:12:42.124Z,986.72
2017-12-15T05:13:42.116Z,986.74
2017-12-15T05:14:42.088Z,986.71
2017-12-15T05:15:42.063Z,986.75
2017-12-15T05:16:42.032Z,986.73
2017-12-15T05:17:42.021Z,986.77
2017-12-15T05:18:41.990Z,986.75
2017-12-15T05:19:41.964Z,986.77
2017-12-15T05:20:41.949Z,986.73
2017-12-15T05:21:41.919Z,986.78
2017-12-15T05:22:41.894Z,986.75
2017-12-15T05:23:41.871Z,986.78
2017-12-15T05:24:41.850Z,986.77
2017-12-15T05:25:41.823Z,986.81
2017-12-15T05:26:41.807Z,986.79
2017-12-15T05:27:41.777Z,986.82
2017-12-15T05:28:41.753Z,986.82
2017-12-15T05:29:41.740Z,986.84
2017-12-15T05:30:41.710Z,986.87
2017-12-15T05:31:41.686Z,986.86
2017-12-15T05:32:41.735Z,986.91
2017-12-15T05:33:41.639Z,986.95
2017-12-15T05:34:41.616Z,986.94
2017-12-15T05:35:41.747Z,986.99
2017-12-15T05:36:41.567Z,986.99
2017-12-15T05:37:41.547Z,986.94
2017-12-15T05:38:41.545Z,987.01
2017-12-15T05:39:41.498Z,986.99
2017-12-15T05:40:41.485Z,986.95
2017-12-15T05:41:41.451Z,986.96
2017-12-15T05:42:41.432Z,986.98
2017-12-15T05:43:41.404Z,987.00
2017-12-15T05:44:41.385Z,986.99
2017-12-15T05:45:41.357Z,986.97
2017-12-15T05:46:41.337Z,986.98
2017-12-15T05:47:41.311Z,986.98
2017-12-15T05:48:41.318Z,986.94
2017-12-15T05:49:41.269Z,986.97
2017-12-15T05:50:41.248Z,986.93
2017-12-15T05:51:41.218Z,986.96
2017-12-15T05:52:41.207Z,986.98
2017-12-15T05:53:41.173Z,986.98
2017-12-15T05:54:41.154Z,987.04
2017-12-15T05:55:41.134Z,987.08
2017-12-15T05:56:41.115Z,987.08
2017-12-15T05:57:41.089Z,987.13
2017-12-15T05:58:41.058Z,987.09
2017-12-15T05:59:41.034Z,987.12
2017-12-15T06:00:41.012Z,987.14
2017-12-15T06:01:40.987Z,987.22
2017-12-15T06:02:40.966Z,987.23
2017-12-15T06:03:40.942Z,987.26
2017-12-15T06:04:40.918Z,987.20
2017-12-15T06:05:40.919Z,987.22
2017-12-15T06:06:40.872Z,987.25
2017-12-15T06:07:40.846Z,987.24
2017-12-15T06:08:40.923Z,987.26
2017-12-15T06:09:40.801Z,987.29
2017-12-15T06:10:40.782Z,987.28
2017-12-15T06:11:40.766Z,987.32
2017-12-15T06:12:40.735Z,987.29
2017-12-15T06:13:40.718Z,987.32
2017-12-15T06:14:40.687Z,987.34
2017-12-15T06:15:40.660Z,987.32
2017-12-15T06:16:40.640Z,987.34
2017-12-15T06:17:40.619Z,987.30
2017-12-15T06:18:40.601Z,987.30
2017-12-15T06:19:40.570Z,987.34
2017-12-15T06:20:40.545Z,987.33
2017-12-15T06:21:40.525Z,987.31
2017-12-15T06:22:40.500Z,987.32
2017-12-15T06:23:40.480Z,987.42
2017-12-15T06:24:40.454Z,987.38
2017-12-15T06:25:40.432Z,987.39
2017-12-15T06:26:40.409Z,987.43
2017-12-15T06:27:40.383Z,987.41
2017-12-15T06:28:40.361Z,987.41
2017-12-15T06:29:40.356Z,987.43
2017-12-15T06:30:40.449Z,987.47
2017-12-15T06:31:40.290Z,987.45
2017-12-15T06:32:40.268Z,987.46
2017-12-15T06:33:40.247Z,987.48
2017-12-15T06:34:40.224Z,987.48
2017-12-15T06:35:40.201Z,987.52
2017-12-15T06:36:40.177Z,987.53
2017-12-15T06:37:40.152Z,987.53
2017-12-15T06:38:40.130Z,987.53
2017-12-15T06:39:40.124Z,987.56
2017-12-15T06:40:40.088Z,987.55
2017-12-15T06:41:40.196Z,987.52
2017-12-15T06:42:40.047Z,987.55
2017-12-15T06:43:40.017Z,987.57
2017-12-15T06:44:39.999Z,987.63
2017-12-15T06:45:39.981Z,987.68
2017-12-15T06:46:39.947Z,987.62
2017-12-15T06:47:39.930Z,987.62
2017-12-15T06:48:39.899Z,987.63
2017-12-15T06:49:39.876Z,987.64
2017-12-15T06:50:39.854Z,987.67
2017-12-15T06:51:39.840Z,987.63
2017-12-15T06:52:39.808Z,987.62
2017-12-15T06:53:39.786Z,987.61
2017-12-15T06:54:39.765Z,987.64
2017-12-15T06:55:39.742Z,987.63
2017-12-15T06:56:39.716Z,987.63
2017-12-15T06:57:39.698Z,987.64
2017-12-15T06:58:39.671Z,987.69
2017-12-15T06:59:39.647Z,987.66
2017-12-15T07:00:39.625Z,987.64
2017-12-15T07:01:39.600Z,987.67
2017-12-15T07:02:39.578Z,987.66
2017-12-15T07:03:39.555Z,987.69
2017-12-15T07:04:39.530Z,987.68
2017-12-15T07:05:39.505Z,987.68
2017-12-15T07:06:39.579Z,987.69
2017-12-15T07:07:39.467Z,987.69
2017-12-15T07:08:39.436Z,987.69
2017-12-15T07:09:39.426Z,987.69
2017-12-15T07:10:39.393Z,987.67
2017-12-15T07:11:39.366Z,987.66
2017-12-15T07:12:39.346Z,987.68
2017-12-15T07:13:39.322Z,987.68
2017-12-15T07:14:39.299Z,987.65
2017-12-15T07:15:39.277Z,987.69
2017-12-15T07:16:39.252Z,987.71
2017-12-15T07:17:39.236Z,987.71
2017-12-15T07:18:39.220Z,987.75
2017-12-15T07:19:39.196Z,987.71
2017-12-15T07:20:39.188Z,987.78
2017-12-15T07:21:39.136Z,987.72
2017-12-15T07:22:39.113Z,987.75
2017-12-15T07:23:39.092Z,987.72
2017-12-15T07:24:39.066Z,987.71
2017-12-15T07:25:39.043Z,987.74
2017-12-15T07:26:39.020Z,987.76
2017-12-15T07:27:38.995Z,987.75
2017-12-15T07:28:38.975Z,987.79
2017-12-15T07:29:38.951Z,987.74
2017-12-15T07:30:38.930Z,987.81
2017-12-15T07:31:38.903Z,987.81
2017-12-15T07:32:38.880Z,987.84
2017-12-15T07:33:38.911Z,987.80
2017-12-15T07:34:38.846Z,987.81
2017-12-15T07:35:38.811Z,987.87
2017-12-15T07:36:38.799Z,987.82
2017-12-15T07:37:38.777Z,987.80
2017-12-15T07:38:38.744Z,987.81
2017-12-15T07:39:38.789Z,987.82
2017-12-15T07:40:38.693Z,987.81
2017-12-15T07:41:38.688Z,987.81
2017-12-15T07:42:38.725Z,987.90
2017-12-15T07:43:38.623Z,987.86
2017-12-15T07:44:38.626Z,987.89
2017-12-15T07:45:38.580Z,987.89
2017-12-15T07:46:38.559Z,987.92
2017-12-15T07:47:38.531Z,987.96
2017-12-15T07:48:38.542Z,987.99
2017-12-15T07:49:38.488Z,988.01
2017-12-15T07:50:38.460Z,987.96
2017-12-15T07:51:38.455Z,988.02
2017-12-15T07:52:38.419Z,987.99
2017-12-15T07:53:38.394Z,988.00
2017-12-15T07:54:38.370Z,988.01
2017-12-15T07:55:38.353Z,988.04
2017-12-15T07:56:38.325Z,988.04
2017-12-15T07:57:38.301Z,988.04
2017-12-15T07:58:38.277Z,988.06
2017-12-15T07:59:38.260Z,988.05
2017-12-15T08:00:38.234Z,988.04
2017-12-15T08:01:38.371Z,988.03
2017-12-15T08:02:38.184Z,988.08
2017-12-15T08:03:38.176Z,988.07
2017-12-15T08:04:38.154Z,988.07
2017-12-15T08:05:38.116Z,988.04
2017-12-15T08:06:38.097Z,988.02
2017-12-15T08:07:38.079Z,988.06
2017-12-15T08:08:38.084Z,988.05
2017-12-15T08:09:38.027Z,988.07
2017-12-15T08:10:38.004Z,988.08
2017-12-15T08:11:37.975Z,988.10
2017-12-15T08:12:37.968Z,988.11
2017-12-15T08:13:37.936Z,988.15
2017-12-15T08:14:37.909Z,988.15
2017-12-15T08:15:37.886Z,988.14
2017-12-15T08:16:37.867Z,988.19
2017-12-15T08:17:37.836Z,988.22
2017-12-15T08:18:37.818Z,988.19
2017-12-15T08:19:37.797Z,988.27
2017-12-15T08:20:37.771Z,988.22
2017-12-15T08:21:37.751Z,988.22
2017-12-15T08:22:37.719Z,988.28
2017-12-15T08:23:37.699Z,988.27
2017-12-15T08:24:37.674Z,988.29
2017-12-15T08:25:37.676Z,988.26
2017-12-15T08:26:37.631Z,988.28
2017-12-15T08:27:37.605Z,988.27
2017-12-15T08:28:37.591Z,988.30
2017-12-15T08:29:37.564Z,988.32
2017-12-15T08:30:37.537Z,988.33
2017-12-15T08:31:37.512Z,988.37
2017-12-15T08:32:37.494Z,988.34
2017-12-15T08:33:37.475Z,988.35
2017-12-15T08:34:37.451Z,988.38
2017-12-15T08:35:37.421Z,988.41
2017-12-15T08:36:37.395Z,988.43
2017-12-15T08:37:37.435Z,988.42
2017-12-15T08:38:37.352Z,988.41
2017-12-15T08:39:37.331Z,988.41
2017-12-15T08:40:37.360Z,988.43
2017-12-15T08:41:37.284Z,988.45
2017-12-15T08:42:37.261Z,988.44
2017-12-15T08:43:37.237Z,988.47
2017-12-15T08:44:37.214Z,988.48
2017-12-15T08:45:37.203Z,988.51
2017-12-15T08:46:37.170Z,988.52
2017-12-15T08:47:37.146Z,988.52
2017-12-15T08:48:37.120Z,988.53
2017-12-15T08:49:37.099Z,988.52
2017-12-15T08:50:37.079Z,988.60
2017-12-15T08:51:37.061Z,988.60
2017-12-15T08:52:37.028Z,988.61
2017-12-15T08:53:37.008Z,988.63
2017-12-15T08:54:36.997Z,988.64
2017-12-15T08:55:36.961Z,988.64
2017-12-15T08:56:36.938Z,988.70
2017-12-15T08:57:36.922Z,988.71
2017-12-15T08:58:36.893Z,988.72
2017-12-15T08:59:36.869Z,988.74
2017-12-15T09:00:36.882Z,988.81
2017-12-15T09:01:36.837Z,988.78
2017-12-15T09:02:36.802Z,988.80
2017-12-15T09:03:36.781Z,988.81
2017-12-15T09:04:36.758Z,988.83
2017-12-15T09:05:36.735Z,988.83
2017-12-15T09:06:36.709Z,988.83
2017-12-15T09:07:36.699Z,988.83
2017-12-15T09:08:36.667Z,988.90
2017-12-15T09:09:36.641Z,988.86
2017-12-15T09:10:36.697Z,988.91
2017-12-15T09:11:36.595Z,988.89
2017-12-15T09:12:36.587Z,988.90
2017-12-15T09:13:36.550Z,988.93
2017-12-15T09:14:36.532Z,988.95
2017-12-15T09:15:36.500Z,989.00
2017-12-15T09:16:36.480Z,988.96
2017-12-15T09:17:36.485Z,989.01
2017-12-15T09:18:36.435Z,988.99
2017-12-15T09:19:36.409Z,989.04
2017-12-15T09:20:36.388Z,989.08
2017-12-15T09:21:36.368Z,989.06
2017-12-15T09:22:36.351Z,989.09
2017-12-15T09:23:36.319Z,989.10
2017-12-15T09:24:36.295Z,989.10
2017-12-15T09:25:36.274Z,989.10
2017-12-15T09:26:36.248Z,989.12
2017-12-15T09:27:36.233Z,989.17
2017-12-15T09:28:36.213Z,989.14
2017-12-15T09:29:36.182Z,989.17
2017-12-15T09:30:36.156Z,989.20
2017-12-15T09:31:36.135Z,989.23
2017-12-15T09:32:36.133Z,989.21
2017-12-15T09:33:36.084Z,989.26
2017-12-15T09:34:36.063Z,989.23
2017-12-15T09:35:36.197Z,989.24
2017-12-15T09:36:36.024Z,989.24
2017-12-15T09:37:35.999Z,989.28
2017-12-15T09:38:36.014Z,989.27
2017-12-15T09:39:35.948Z,989.27
2017-12-15T09:40:35.924Z,989.25
2017-12-15T09:41:35.906Z,989.28
2017-12-15T09:42:35.882Z,989.28
2017-12-15T09:43:35.857Z,989.32
2017-12-15T09:44:35.837Z,989.33
2017-12-15T09:45:35.824Z,989.31
2017-12-15T09:46:35.796Z,989.37
2017-12-15T09:47:35.766Z,989.40
2017-12-15T09:48:35.756Z,989.34
2017-12-15T09:49:35.733Z,989.38
2017-12-15T09:50:35.701Z,989.38
2017-12-15T09:51:35.684Z,989.39
2017-12-15T09:52:35.653Z,989.40
2017-12-15T09:53:35.641Z,989.40
2017-12-15T09:54:35.611Z,989.42
2017-12-15T09:55:35.584Z,989.40
2017-12-15T09:56:35.570Z,989.43
2017-12-15T09:57:35.543Z,989.43
2017-12-15T09:58:35.520Z,989.46
2017-12-15T09:59:35.509Z,989.48
2017-12-15T10:00:35.521Z,989.43
2017-12-15T10:01:35.467Z,989.49
2017-12-15T10:02:35.433Z,989.47
2017-12-15T10:03:35.407Z,989.48
2017-12-15T10:04:35.396Z,989.54
2017-12-15T10:05:35.487Z,989.52
2017-12-15T10:06:35.341Z,989.54
2017-12-15T10:07:35.317Z,989.55
2017-12-15T10:08:35.368Z,989.56
2017-12-15T10:09:35.276Z,989.56
2017-12-15T10:10:35.255Z,989.58
2017-12-15T10:11:35.233Z,989.58
2017-12-15T10:12:35.219Z,989.59
2017-12-15T10:13:35.187Z,989.57
2017-12-15T10:14:35.177Z,989.58
2017-12-15T10:15:35.142Z,989.65
2017-12-15T10:16:35.133Z,989.58
2017-12-15T10:17:35.103Z,989.59
2017-12-15T10:18:35.075Z,989.59
2017-12-15T10:19:35.076Z,989.61
2017-12-15T10:20:35.034Z,989.60
2017-12-15T10:21:35.008Z,989.59
2017-12-15T10:22:34.989Z,989.61
2017-12-15T10:23:34.970Z,989.60
2017-12-15T10:24:35.026Z,989.60
2017-12-15T10:25:34.934Z,989.59
2017-12-15T10:26:34.901Z,989.61
2017-12-15T10:27:34.957Z,989.57
2017-12-15T10:28:34.855Z,989.54
2017-12-15T10:29:34.842Z,989.54
2017-12-15T10:30:34.921Z,989.55
2017-12-15T10:31:34.793Z,989.56
2017-12-15T10:32:34.805Z,989.54
2017-12-15T10:33:34.748Z,989.55
2017-12-15T10:34:34.723Z,989.58
2017-12-15T10:35:34.709Z,989.58
2017-12-15T10:36:34.680Z,989.57
2017-12-15T10:37:34.663Z,989.58
2017-12-15T10:38:34.706Z,989.59
2017-12-15T10:39:34.614Z,989.59
2017-12-15T10:40:34.593Z,989.61
2017-12-15T10:41:34.581Z,989.62
2017-12-15T10:42:34.555Z,989.63
2017-12-15T10:43:34.528Z,989.60
2017-12-15T10:44:34.516Z,989.64
2017-12-15T10:45:34.500Z,989.61
2017-12-15T10:46:34.486Z,989.63
2017-12-15T10:47:34.445Z,989.65
2017-12-15T10:48:34.453Z,989.64
2017-12-15T10:49:34.405Z,989.67
2017-12-15T10:50:34.383Z,989.66
2017-12-15T10:51:34.360Z,989.66
2017-12-15T10:52:34.338Z,989.63
2017-12-15T10:53:34.329Z,989.71
2017-12-15T10:54:34.296Z,989.66
2017-12-15T10:55:34.274Z,989.69
2017-12-15T10:56:34.254Z,989.71
2017-12-15T10:57:34.234Z,989.68
2017-12-15T10:58:34.219Z,989.67
2017-12-15T10:59:34.203Z,989.66
2017-12-15T11:00:34.303Z,989.72
2017-12-15T11:01:34.150Z,989.72
2017-12-15T11:02:34.132Z,989.72
2017-12-15T11:03:34.133Z,989.72
2017-12-15T11:04:34.091Z,989.67
2017-12-15T11:05:34.065Z,989.70
2017-12-15T11:06:34.050Z,989.67
2017-12-15T11:07:34.026Z,989.63
2017-12-15T11:08:34.008Z,989.62
2017-12-15T11:09:33.984Z,989.64
2017-12-15T11:10:33.969Z,989.65
2017-12-15T11:11:33.942Z,989.67
2017-12-15T11:12:33.919Z,989.69
2017-12-15T11:13:33.903Z,989.72
2017-12-15T11:14:33.880Z,989.72
2017-12-15T11:15:33.860Z,989.79
2017-12-15T11:16:33.841Z,989.76
2017-12-15T11:17:33.819Z,989.75
2017-12-15T11:18:33.815Z,989.77
2017-12-15T11:19:33.802Z,989.77
2017-12-15T11:20:33.759Z,989.76
2017-12-15T11:21:33.745Z,989.79
2017-12-15T11:22:33.723Z,989.77
2017-12-15T11:23:33.698Z,989.82
2017-12-15T11:24:33.719Z,989.78
2017-12-15T11:25:33.658Z,989.76
2017-12-15T11:26:33.636Z,989.76
2017-12-15T11:27:33.616Z,989.82
2017-12-15T11:28:33.598Z,989.78
2017-12-15T11:29:33.580Z,989.75
2017-12-15T11:30:33.573Z,989.74
2017-12-15T11:31:33.538Z,989.75
2017-12-15T11:32:33.524Z,989.68
2017-12-15T11:33:33.512Z,989.71
2017-12-15T11:34:33.502Z,989.68
2017-12-15T11:35:33.457Z,989.73
2017-12-15T11:36:33.441Z,989.70
2017-12-15T11:37:33.424Z,989.70
2017-12-15T11:38:33.406Z,989.70
2017-12-15T11:39:33.374Z,989.71
2017-12-15T11:40:33.355Z,989.72
2017-12-15T11:41:33.340Z,989.74
2017-12-15T11:42:33.315Z,989.75
2017-12-15T11:43:33.295Z,989.70
2017-12-15T11:44:33.275Z,989.70
2017-12-15T11:45:33.256Z,989.69
2017-12-15T11:46:33.238Z,989.72
2017-12-15T11:47:33.216Z,989.70
2017-12-15T11:48:33.200Z,989.71
2017-12-15T11:49:33.178Z,989.69
2017-12-15T11:50:33.153Z,989.68
2017-12-15T11:51:33.135Z,989.71
2017-12-15T11:52:33.188Z,989.66
2017-12-15T11:53:33.095Z,989.71
2017-12-15T11:54:33.075Z,989.70
2017-12-15T11:55:33.066Z,989.71
2017-12-15T11:56:33.038Z,989.69
2017-12-15T11:57:33.009Z,989.71
2017-12-15T11:58:33.003Z,989.75
2017-12-15T11:59:32.968Z,989.78
2017-12-15T12:00:32.955Z,989.79
2017-12-15T12:01:32.935Z,989.81
2017-12-15T12:02:32.915Z,989.84
2017-12-15T12:03:32.949Z,989.81
2017-12-15T12:04:32.865Z,989.86
2017-12-15T12:05:32.850Z,989.86
2017-12-15T12:06:32.839Z,989.85
2017-12-15T12:07:32.802Z,989.86
2017-12-15T12:08:32.780Z,989.86
2017-12-15T12:09:32.760Z,989.90
2017-12-15T12:10:32.741Z,989.89
2017-12-15T12:11:32.718Z,989.89
2017-12-15T12:12:32.709Z,989.88
2017-12-15T12:13:32.677Z,989.95
2017-12-15T12:14:32.658Z,989.92
2017-12-15T12:15:32.636Z,989.96
2017-12-15T12:16:32.612Z,989.95
2017-12-15T12:17:32.595Z,989.95
2017-12-15T12:18:32.574Z,989.99
2017-12-15T12:19:32.561Z,989.96
2017-12-15T12:20:32.537Z,989.98
2017-12-15T12:21:32.510Z,990.00
2017-12-15T12:22:32.643Z,990.02
2017-12-15T12:23:32.474Z,990.05
2017-12-15T12:24:32.451Z,990.03
2017-12-15T12:25:32.542Z,990.01
2017-12-15T12:26:32.411Z,990.02
2017-12-15T12:27:32.389Z,990.05
2017-12-15T12:28:32.479Z,990.07